createdAt,value
2019-01-06T00:00:57.254Z,80.00
2019-01-06T00:03:43.312Z,78.10
2019-01-06T00:06:27.714Z,78.60
2019-01-06T00:09:15.871Z,78.10
2019-01-06T00:12:23.216Z,78.00
2019-01-06T00:15:13.351Z,78.50
2019-01-06T00:18:01.216Z,78.80
2019-01-06T00:20:53.122Z,78.70
2019-01-06T00:23:50.963Z,78.30
2019-01-06T00:26:36.269Z,79.60
2019-01-06T00:29:28.594Z,79.40
2019-01-06T00:32:28.506Z,80.10
2019-01-06T00:35:29.875Z,80.30
2019-01-06T00:38:17.800Z,80.70
2019-01-06T00:41:05.843Z,80.80
2019-01-06T00:43:55.242Z,81.00
2019-01-06T00:46:53.316Z,81.20
2019-01-06T00:49:41.683Z,81.40
2019-01-06T00:52:42.826Z,81.50
2019-01-06T00:55:35.255Z,81.20
2019-01-06T00:58:23.614Z,81.50
2019-01-06T01:01:13.878Z,81.80
2019-01-06T01:04:10.284Z,81.10
2019-01-06T01:07:08.274Z,81.80
2019-01-06T01:10:00.540Z,81.90
2019-01-06T01:12:58.922Z,81.70
2019-01-06T01:15:51.317Z,81.80
2019-01-06T01:18:58.452Z,83.10
2019-01-06T01:21:46.383Z,82.50
2019-01-06T01:24:41.545Z,82.60
2019-01-06T01:27:33.720Z,82.50
2019-01-06T01:30:18.806Z,82.50
2019-01-06T01:33:06.491Z,83.20
2019-01-06T01:35:58.344Z,82.60
2019-01-06T01:38:50.583Z,82.80
2019-01-06T01:41:38.657Z,82.50
2019-01-06T01:44:37.059Z,82.50
2019-01-06T01:47:24.611Z,82.60
2019-01-06T01:50:13.683Z,82.60
2019-01-06T01:53:07.627Z,82.60
2019-01-06T01:56:00.112Z,82.80
2019-01-06T01:58:43.756Z,82.80
2019-01-06T02:01:33.213Z,82.60
2019-01-06T02:04:28.690Z,81.50
2019-01-06T02:07:20.251Z,82.00
2019-01-06T02:10:01.411Z,81.70
2019-01-06T02:13:00.246Z,80.70
2019-01-06T02:15:49.355Z,80.50
2019-01-06T02:18:49.402Z,81.10
2019-01-06T02:21:38.061Z,80.20
2019-01-06T02:24:26.504Z,80.00
2019-01-06T02:27:15.903Z,80.30
2019-01-06T02:30:04.199Z,80.70
2019-01-06T02:33:05.607Z,81.00
2019-01-06T02:35:58.122Z,80.80
2019-01-06T02:38:42.910Z,80.90
2019-01-06T02:41:47.413Z,81.20
2019-01-06T02:44:45.030Z,80.40
2019-01-06T02:47:34.363Z,80.50
2019-01-06T02:53:10.139Z,79.90
2019-01-06T02:55:55.232Z,80.60
2019-01-06T02:58:59.740Z,80.80
2019-01-06T03:02:03.897Z,79.40
2019-01-06T03:04:51.963Z,79.30
2019-01-06T03:07:34.219Z,79.70
2019-01-06T03:10:23.483Z,79.40
2019-01-06T03:13:11.322Z,79.50
2019-01-06T03:15:59.730Z,80.10
2019-01-06T03:18:58.066Z,80.20
2019-01-06T03:21:56.267Z,80.40
2019-01-06T03:24:41.018Z,80.10
2019-01-06T03:27:29.431Z,79.00
2019-01-06T03:30:17.309Z,79.60
2019-01-06T03:33:26.303Z,79.00
2019-01-06T03:36:14.090Z,79.50
2019-01-06T03:39:03.555Z,79.70
2019-01-06T03:41:51.703Z,79.40
2019-01-06T03:44:41.287Z,79.10
2019-01-06T03:47:28.966Z,78.40
2019-01-06T03:50:26.999Z,79.00
2019-01-06T03:53:19.310Z,79.30
2019-01-06T03:56:20.516Z,79.20
2019-01-06T03:59:18.459Z,78.80
2019-01-06T04:02:06.254Z,79.40
2019-01-06T04:04:55.705Z,79.30
2019-01-06T04:07:43.285Z,79.10
2019-01-06T04:10:41.519Z,78.90
2019-01-06T04:13:30.795Z,79.00
2019-01-06T04:16:21.282Z,78.80
2019-01-06T04:19:10.393Z,79.10
2019-01-06T04:21:56.150Z,79.30
2019-01-06T04:24:43.248Z,79.40
2019-01-06T04:27:30.926Z,79.70
2019-01-06T04:30:32.583Z,80.10
2019-01-06T04:33:28.407Z,80.20
2019-01-06T04:36:20.838Z,80.90
2019-01-06T04:39:08.551Z,81.30
2019-01-06T04:42:01.128Z,81.40
2019-01-06T04:44:56.234Z,81.60
2019-01-06T04:48:04.021Z,81.80
2019-01-06T04:51:03.424Z,81.60
2019-01-06T04:53:52.179Z,82.20
2019-01-06T04:56:46.999Z,82.30
2019-01-06T04:59:54.715Z,82.70
2019-01-06T05:02:40.246Z,82.30
2019-01-06T05:05:33.831Z,82.80
2019-01-06T05:08:22.094Z,83.10
2019-01-06T05:11:10.062Z,82.70
2019-01-06T05:14:11.168Z,82.20
2019-01-06T05:17:09.465Z,81.60
2019-01-06T05:20:03.756Z,82.10
2019-01-06T05:23:01.506Z,81.90
2019-01-06T05:25:58.631Z,81.60
2019-01-06T05:28:54.042Z,80.60
2019-01-06T05:31:41.832Z,80.80
2019-01-06T05:34:31.242Z,81.80
2019-01-06T05:37:22.580Z,81.50
2019-01-06T05:40:10.306Z,81.80
2019-01-06T05:43:14.321Z,81.80
2019-01-06T05:46:19.849Z,82.70
2019-01-06T05:49:21.143Z,82.20
2019-01-06T05:52:22.398Z,81.90
2019-01-06T05:55:14.463Z,82.50
2019-01-06T05:58:09.615Z,82.50
2019-01-06T06:01:01.489Z,82.40
2019-01-06T06:03:51.033Z,82.50
2019-01-06T06:06:38.761Z,82.40
2019-01-06T06:09:27.014Z,82.80
2019-01-06T06:12:22.403Z,82.70
2019-01-06T06:15:14.430Z,82.20
2019-01-06T06:18:07.007Z,82.10
2019-01-06T06:20:56.081Z,82.10
2019-01-06T06:23:44.497Z,82.40
2019-01-06T06:26:36.618Z,82.70
2019-01-06T06:29:29.378Z,82.70
2019-01-06T06:32:33.557Z,83.10
2019-01-06T06:35:21.223Z,83.60
2019-01-06T06:38:23.057Z,83.70
2019-01-06T06:41:16.094Z,84.10
2019-01-06T06:43:55.587Z,84.10
2019-01-06T06:46:43.714Z,83.40
2019-01-06T06:49:31.766Z,83.90
2019-01-06T06:52:14.998Z,83.40
2019-01-06T06:55:06.924Z,83.60
2019-01-06T06:58:54.618Z,84.10
2019-01-06T07:04:44.106Z,83.70
2019-01-06T07:07:33.506Z,84.70
2019-01-06T07:10:21.972Z,84.60
2019-01-06T07:13:24.233Z,84.90
2019-01-06T07:16:28.722Z,84.60
2019-01-06T07:19:24.093Z,84.00
2019-01-06T07:22:15.330Z,83.70
2019-01-06T07:25:11.506Z,83.80
2019-01-06T07:28:04.818Z,83.80
2019-01-06T07:30:50.879Z,83.50
2019-01-06T07:33:38.610Z,82.70
2019-01-06T07:36:44.495Z,82.70
2019-01-06T07:39:45.999Z,83.40
2019-01-06T07:42:34.091Z,83.10
2019-01-06T07:45:38.862Z,82.90
2019-01-06T07:48:26.770Z,82.90
2019-01-06T07:51:26.684Z,83.00
2019-01-06T07:54:18.573Z,81.90
2019-01-06T07:57:21.970Z,83.10
2019-01-06T08:00:15.210Z,82.50
2019-01-06T08:03:00.735Z,82.60
2019-01-06T08:05:50.226Z,82.50
2019-01-06T08:08:42.627Z,82.60
2019-01-06T08:11:30.414Z,83.30
2019-01-06T08:14:29.111Z,81.90
2019-01-06T08:17:30.318Z,82.50
2019-01-06T08:20:22.846Z,82.20
2019-01-06T08:23:16.839Z,82.50
2019-01-06T08:26:05.931Z,82.50
2019-01-06T08:28:53.632Z,82.20
2019-01-06T08:31:46.495Z,81.90
2019-01-06T08:34:47.040Z,82.20
2019-01-06T08:37:54.974Z,82.40
2019-01-06T08:40:42.790Z,82.00
2019-01-06T08:43:26.143Z,82.00
2019-01-06T08:46:14.654Z,81.90
2019-01-06T08:49:02.602Z,81.60
2019-01-06T08:51:50.612Z,82.20
2019-01-06T08:54:39.792Z,82.20
2019-01-06T08:57:27.892Z,81.80
2019-01-06T09:00:16.141Z,82.20
2019-01-06T09:03:20.734Z,82.30
2019-01-06T09:06:08.524Z,82.70
2019-01-06T09:08:56.266Z,82.70
2019-01-06T09:11:46.087Z,83.20
2019-01-06T09:14:36.560Z,82.80
2019-01-06T09:17:28.474Z,82.90
2019-01-06T09:20:20.366Z,82.70
2019-01-06T09:23:24.849Z,83.20
2019-01-06T09:26:13.148Z,83.80
2019-01-06T09:29:09.966Z,83.40
2019-01-06T09:32:08.912Z,82.60
2019-01-06T09:35:16.123Z,83.20
2019-01-06T09:38:23.692Z,82.60
2019-01-06T09:41:23.043Z,81.90
2019-01-06T09:44:10.787Z,81.10
2019-01-06T09:47:15.098Z,81.60
2019-01-06T09:50:19.820Z,81.30
2019-01-06T09:53:07.738Z,81.30
2019-01-06T09:55:55.370Z,81.30
2019-01-06T09:58:43.391Z,81.30
2019-01-06T10:01:52.798Z,81.10
2019-01-06T10:04:41.701Z,81.30
2019-01-06T10:07:26.480Z,81.10
2019-01-06T10:10:15.235Z,81.80
2019-01-06T10:13:03.317Z,81.70
2019-01-06T10:15:51.405Z,81.40
2019-01-06T10:18:53.070Z,80.90
2019-01-06T10:21:36.229Z,80.70
2019-01-06T10:24:24.053Z,81.10
2019-01-06T10:27:16.767Z,81.10
2019-01-06T10:32:47.627Z,79.00
2019-01-06T10:35:36.821Z,79.50
2019-01-06T10:38:38.989Z,79.30
2019-01-06T10:41:43.243Z,78.50
2019-01-06T10:44:31.347Z,79.10
2019-01-06T10:47:20.542Z,78.30
2019-01-06T10:53:15.327Z,78.60
2019-01-06T10:56:10.188Z,79.40
2019-01-06T10:59:11.724Z,79.80
2019-01-06T11:02:14.068Z,78.90
2019-01-06T11:05:02.463Z,77.50
2019-01-06T11:07:44.715Z,77.60
2019-01-06T11:10:27.199Z,78.20
2019-01-06T11:13:15.102Z,78.30
2019-01-06T11:16:04.446Z,78.00
2019-01-06T11:18:57.408Z,78.20
2019-01-06T11:21:51.435Z,78.70
2019-01-06T11:24:47.972Z,79.30
2019-01-06T11:27:36.004Z,77.70
2019-01-06T11:30:32.421Z,78.40
2019-01-06T11:33:20.215Z,79.10
2019-01-06T11:36:08.329Z,80.50
2019-01-06T11:38:56.393Z,79.10
2019-01-06T11:41:44.694Z,80.00
2019-01-06T11:44:39.483Z,80.00
2019-01-06T11:47:28.948Z,78.80
2019-01-06T11:50:18.259Z,77.70
2019-01-06T11:53:06.485Z,77.90
2019-01-06T11:55:44.890Z,78.30
2019-01-06T11:58:33.353Z,78.60
2019-01-06T12:01:31.662Z,77.80
2019-01-06T12:04:33.505Z,78.40
2019-01-06T12:07:19.938Z,78.30
2019-01-06T12:10:09.005Z,78.40
2019-01-06T12:13:01.075Z,78.80
2019-01-06T12:15:46.353Z,78.60
2019-01-06T12:18:35.803Z,78.40
2019-01-06T12:21:27.247Z,78.40
2019-01-06T12:24:24.183Z,78.30
2019-01-06T12:27:29.725Z,78.20
2019-01-06T12:30:18.203Z,77.20
2019-01-06T12:33:06.861Z,77.30
2019-01-06T12:35:58.698Z,77.80
2019-01-06T12:38:43.322Z,78.00
2019-01-06T12:41:31.110Z,77.40
2019-01-06T12:44:24.143Z,76.50
2019-01-06T12:47:16.154Z,77.10
2019-01-06T12:49:59.905Z,77.80
2019-01-06T12:52:48.747Z,78.70
2019-01-06T12:55:34.033Z,77.70
2019-01-06T12:58:26.052Z,78.10
2019-01-06T13:01:27.497Z,77.90
2019-01-06T13:04:15.844Z,76.60
2019-01-06T13:07:05.340Z,76.90
2019-01-06T13:10:03.551Z,76.80
2019-01-06T13:12:53.112Z,77.20
2019-01-06T13:15:41.096Z,77.70
2019-01-06T13:18:48.938Z,77.60
2019-01-06T13:21:36.790Z,77.90
2019-01-06T13:24:24.855Z,78.50
2019-01-06T13:27:23.014Z,78.20
2019-01-06T13:30:12.255Z,78.30
2019-01-06T13:33:05.094Z,78.40
2019-01-06T13:35:53.230Z,78.30
2019-01-06T13:38:54.555Z,78.00
2019-01-06T13:41:45.267Z,77.60
2019-01-06T13:44:40.439Z,77.90
2019-01-06T13:47:20.767Z,78.10
2019-01-06T13:50:10.198Z,78.30
2019-01-06T13:52:59.952Z,78.10
2019-01-06T13:56:04.474Z,78.40
2019-01-06T13:59:09.446Z,77.00
2019-01-06T14:01:58.626Z,77.70
2019-01-06T14:04:53.463Z,77.60
2019-01-06T14:07:43.676Z,77.70
2019-01-06T14:10:31.828Z,78.20
2019-01-06T14:13:30.021Z,77.70
2019-01-06T14:16:28.182Z,78.50
2019-01-06T14:19:20.593Z,78.50
2019-01-06T14:22:08.627Z,79.60
2019-01-06T14:25:16.444Z,78.30
2019-01-06T14:28:08.092Z,78.80
2019-01-06T14:30:55.530Z,79.00
2019-01-06T14:33:54.064Z,78.70
2019-01-06T14:36:43.499Z,79.30
2019-01-06T14:39:31.600Z,78.90
2019-01-06T14:42:22.034Z,78.90
2019-01-06T14:45:14.581Z,77.80
2019-01-06T14:48:06.629Z,78.30
2019-01-06T14:50:59.935Z,78.50
2019-01-06T14:53:47.409Z,78.80
2019-01-06T14:56:35.371Z,78.90
2019-01-06T14:59:39.950Z,79.20
2019-01-06T15:02:27.968Z,79.70
2019-01-06T15:05:16.050Z,80.10
2019-01-06T15:08:09.751Z,80.00
2019-01-06T15:11:02.042Z,80.30
2019-01-06T15:13:53.082Z,80.70
2019-01-06T15:16:42.073Z,80.50
2019-01-06T15:19:40.399Z,80.20
2019-01-06T15:22:29.555Z,81.20
2019-01-06T15:25:28.028Z,81.00
2019-01-06T15:28:27.219Z,81.00
2019-01-06T15:31:28.698Z,81.70
2019-01-06T15:34:21.031Z,81.90
2019-01-06T15:37:10.258Z,81.90
2019-01-06T15:39:59.429Z,78.70
2019-01-06T15:42:54.784Z,81.40
2019-01-06T15:45:44.309Z,81.70
2019-01-06T15:48:32.846Z,81.70
2019-01-06T15:51:14.411Z,82.30
2019-01-06T15:54:03.858Z,82.10
2019-01-06T15:56:53.047Z,82.40
2019-01-06T15:59:45.158Z,82.70
2019-01-06T16:02:25.063Z,82.60
2019-01-06T16:05:25.373Z,82.60
2019-01-06T16:08:20.258Z,82.60
2019-01-06T16:11:24.705Z,82.50
2019-01-06T16:14:29.113Z,82.50
2019-01-06T16:17:19.475Z,81.40
2019-01-06T16:20:07.656Z,82.30
2019-01-06T16:22:56.829Z,82.50
2019-01-06T16:25:52.486Z,82.70
2019-01-06T16:28:40.291Z,82.70
2019-01-06T16:31:29.360Z,83.20
2019-01-06T16:34:17.130Z,83.30
2019-01-06T16:37:12.118Z,83.50
2019-01-06T16:40:00.482Z,83.20
2019-01-06T16:43:05.613Z,82.80
2019-01-06T16:46:01.028Z,83.00
2019-01-06T16:48:56.628Z,83.20
2019-01-06T16:51:45.457Z,83.00
2019-01-06T16:54:40.722Z,83.00
2019-01-06T16:57:26.055Z,83.00
2019-01-06T17:00:14.051Z,83.30
2019-01-06T17:03:02.025Z,83.50
2019-01-06T17:05:45.803Z,83.60
2019-01-06T17:08:33.813Z,83.80
2019-01-06T17:11:30.899Z,85.20
2019-01-06T17:14:38.362Z,84.40
2019-01-06T17:17:43.167Z,84.70
2019-01-06T17:20:32.255Z,84.70
2019-01-06T17:23:22.088Z,84.80
2019-01-06T17:26:20.705Z,84.70
2019-01-06T17:29:15.937Z,84.50
2019-01-06T17:32:04.238Z,84.10
2019-01-06T17:34:59.190Z,84.70
2019-01-06T17:38:00.347Z,84.70
2019-01-06T17:40:48.619Z,84.80
2019-01-06T17:43:38.426Z,84.80
2019-01-06T17:46:27.523Z,84.80
2019-01-06T17:49:22.830Z,84.80
2019-01-06T17:52:10.856Z,85.00
2019-01-06T17:55:00.939Z,85.00
2019-01-06T17:58:04.554Z,85.20
2019-01-06T18:00:59.630Z,84.70
2019-01-06T18:03:56.474Z,85.20
2019-01-06T18:06:38.968Z,85.40
2019-01-06T18:09:27.931Z,85.40
2019-01-06T18:12:15.495Z,85.40
2019-01-06T18:15:04.981Z,85.20
2019-01-06T18:17:52.917Z,85.10
2019-01-06T18:20:45.170Z,84.80
2019-01-06T18:23:33.010Z,84.50
2019-01-06T18:26:21.384Z,85.50
2019-01-06T18:29:09.056Z,85.10
2019-01-06T18:31:57.191Z,85.00
2019-01-06T18:34:58.374Z,85.60
2019-01-06T18:37:59.752Z,85.70
2019-01-06T18:40:45.766Z,85.70
2019-01-06T18:43:34.128Z,85.90
2019-01-06T18:46:23.174Z,85.70
2019-01-06T18:49:27.846Z,85.50
2019-01-06T18:52:15.684Z,85.50
2019-01-06T18:55:03.337Z,85.60
2019-01-06T19:00:37.700Z,85.20
2019-01-06T19:03:33.035Z,85.90
2019-01-06T19:06:19.294Z,85.40
2019-01-06T19:09:07.168Z,85.00
2019-01-06T19:12:05.101Z,85.50
2019-01-06T19:14:52.927Z,85.70
2019-01-06T19:17:41.090Z,84.90
2019-01-06T19:20:39.638Z,85.40
2019-01-06T19:23:32.731Z,85.00
2019-01-06T19:26:37.188Z,85.10
2019-01-06T19:29:25.138Z,85.60
2019-01-06T19:32:29.237Z,86.50
2019-01-06T19:35:21.730Z,86.00
2019-01-06T19:38:09.286Z,86.00
2019-01-06T19:41:04.985Z,86.10
2019-01-06T19:43:57.187Z,86.20
2019-01-06T19:47:00.422Z,86.10
2019-01-06T19:49:48.442Z,86.30
2019-01-06T19:52:46.488Z,86.20
2019-01-06T19:55:35.786Z,86.40
2019-01-06T19:58:33.217Z,86.40
2019-01-06T20:01:23.105Z,86.10
2019-01-06T20:04:22.015Z,86.00
2019-01-06T20:07:11.373Z,86.70
2019-01-06T20:10:00.504Z,86.00
2019-01-06T20:13:01.681Z,86.10
2019-01-06T20:18:51.418Z,85.10
2019-01-06T20:21:38.893Z,85.80
2019-01-06T20:24:28.322Z,85.70
2019-01-06T20:27:17.417Z,85.50
2019-01-06T20:30:22.182Z,85.60
2019-01-06T20:33:10.207Z,85.60
2019-01-06T20:36:17.626Z,85.50
2019-01-06T20:39:07.384Z,85.50
2019-01-06T20:41:59.462Z,85.40
2019-01-06T20:44:51.333Z,85.20
2019-01-06T20:47:40.415Z,85.30
2019-01-06T20:50:28.206Z,85.20
2019-01-06T20:53:35.830Z,84.80
2019-01-06T20:56:25.442Z,84.30
2019-01-06T20:59:09.240Z,84.80
2019-01-06T21:02:07.067Z,84.70
2019-01-06T21:05:04.011Z,84.60
2019-01-06T21:07:56.030Z,85.00
2019-01-06T21:10:46.443Z,84.90
2019-01-06T21:13:34.532Z,85.00
2019-01-06T21:16:23.228Z,84.30
2019-01-06T21:19:10.782Z,84.30
2019-01-06T21:21:58.970Z,84.40
2019-01-06T21:24:51.680Z,84.30
2019-01-06T21:27:56.748Z,83.70
2019-01-06T21:30:46.293Z,83.80
2019-01-06T21:33:38.513Z,84.40
2019-01-06T21:36:32.463Z,84.30
2019-01-06T21:39:30.820Z,84.40
2019-01-06T21:42:19.163Z,84.50
2019-01-06T21:45:11.059Z,85.10
2019-01-06T21:47:54.255Z,84.90
2019-01-06T21:50:57.651Z,85.40
2019-01-06T21:53:45.464Z,85.50
2019-01-06T21:56:33.619Z,85.40
2019-01-06T21:59:25.998Z,85.40
2019-01-06T22:02:24.379Z,85.40
2019-01-06T22:05:25.475Z,85.40
2019-01-06T22:08:13.931Z,85.30
2019-01-06T22:11:06.798Z,84.80
2019-01-06T22:13:59.287Z,84.50
2019-01-06T22:17:01.084Z,84.70
2019-01-06T22:20:02.782Z,85.40
2019-01-06T22:22:55.004Z,85.60
2019-01-06T22:25:42.959Z,85.70
2019-01-06T22:28:30.870Z,85.80
2019-01-06T22:31:25.237Z,84.80
2019-01-06T22:34:21.979Z,85.20
2019-01-06T22:37:17.322Z,85.00
2019-01-06T22:40:11.526Z,85.20
2019-01-06T22:43:09.836Z,85.00
2019-01-06T22:46:10.864Z,85.50
2019-01-06T22:49:08.960Z,85.80
2019-01-06T22:51:52.255Z,85.70
2019-01-06T22:54:39.923Z,86.10
2019-01-06T22:57:27.966Z,86.10
2019-01-06T23:00:19.676Z,86.00
2019-01-06T23:03:07.910Z,85.90
2019-01-06T23:05:56.843Z,85.40
2019-01-06T23:08:58.435Z,85.40
2019-01-06T23:11:45.098Z,86.00
2019-01-06T23:14:34.202Z,85.20
2019-01-06T23:17:34.740Z,85.10
2019-01-06T23:20:22.906Z,85.00
2019-01-06T23:23:22.793Z,85.00
2019-01-06T23:26:15.066Z,84.80
2019-01-06T23:29:03.017Z,87.00
2019-01-06T23:31:51.268Z,85.00
2019-01-06T23:34:38.966Z,85.10
2019-01-06T23:37:46.669Z,85.00
2019-01-06T23:40:34.086Z,85.00
2019-01-06T23:43:23.395Z,85.00
2019-01-06T23:46:30.612Z,84.50
2019-01-06T23:49:26.150Z,84.40
2019-01-06T23:52:19.026Z,83.80
2019-01-06T23:55:24.030Z,84.50
2019-01-06T23:58:13.075Z,84.20
